Time;durP1;ratioP1;P1;durP2;ratioP2;P2;SDS_P1;SDS_P2;PMS_P1;PMS_P2;Temp;Humidity;BMP_temperature;BMP_pressure;BME280_temperature;BME280_humidity;BME280_pressure;Samples;Min_cycle;Max_cycle;Signal;HPM_P1;HPM_P2
2023/06/09 00:01:35;;;;;;;13.70;12.70;;;20.20;99.90;;;;;;4955083;29;20441;-58
2023/06/09 00:04:02;;;;;;;13.90;12.90;;;20.20;99.90;;;;;;4956245;28;20212;-59
2023/06/09 00:06:30;;;;;;;13.40;12.30;;;20.20;99.90;;;;;;4954325;28;20835;-58
2023/06/09 00:08:59;;;;;;;13.83;12.63;;;20.10;99.90;;;;;;4955770;28;20420;-58
2023/06/09 00:11:26;;;;;;;13.20;12.30;;;20.10;99.90;;;;;;4954816;28;20822;-59
2023/06/09 00:13:53;;;;;;;14.20;13.10;;;20.00;99.90;;;;;;4955571;28;20469;-59
2023/06/09 00:16:19;;;;;;;14.33;13.33;;;20.00;99.90;;;;;;4955626;29;20408;-59
2023/06/09 00:18:45;;;;;;;13.63;12.53;;;20.00;99.90;;;;;;4953546;28;20439;-58
2023/06/09 00:21:15;;;;;;;13.97;12.90;;;20.00;99.90;;;;;;4955514;28;20268;-59
2023/06/09 00:23:44;;;;;;;13.93;12.83;;;19.90;99.90;;;;;;4954720;28;20400;-59
2023/06/09 00:26:10;;;;;;;14.67;13.67;;;19.90;99.90;;;;;;4954675;28;20780;-59
2023/06/09 00:28:36;;;;;;;14.33;13.20;;;19.90;99.90;;;;;;4954615;29;20424;-58
2023/06/09 00:31:02;;;;;;;15.17;13.87;;;19.90;99.90;;;;;;4955344;29;20416;-59
2023/06/09 00:33:27;;;;;;;14.53;13.20;;;19.80;99.90;;;;;;4953119;28;20244;-58
2023/06/09 00:35:53;;;;;;;15.63;14.43;;;19.70;99.90;;;;;;4955473;28;20193;-59
2023/06/09 00:38:19;;;;;;;14.03;12.93;;;19.60;99.90;;;;;;4955522;28;20173;-59
2023/06/09 00:40:45;;;;;;;16.13;14.80;;;19.60;99.90;;;;;;4954399;29;20184;-59
2023/06/09 00:43:11;;;;;;;14.63;13.53;;;19.60;99.90;;;;;;4954777;29;20287;-59
2023/06/09 00:45:36;;;;;;;14.87;13.67;;;19.60;99.90;;;;;;4954123;29;20693;-58
2023/06/09 00:48:03;;;;;;;14.60;13.60;;;19.60;99.90;;;;;;4953725;29;20543;-59
2023/06/09 00:50:29;;;;;;;14.73;13.50;;;19.60;99.90;;;;;;4953991;28;20177;-59
2023/06/09 00:52:56;;;;;;;15.20;14.07;;;19.60;99.90;;;;;;4955069;28;20400;-59
2023/06/09 00:55:23;;;;;;;14.50;13.40;;;19.60;99.90;;;;;;4954740;28;20461;-58
2023/06/09 00:57:55;;;;;;;16.87;15.37;;;19.60;99.90;;;;;;4954431;28;20472;-59
2023/06/09 01:00:28;;;;;;;17.33;16.03;;;19.50;99.90;;;;;;4954947;28;20404;-58
2023/06/09 01:03:00;;;;;;;16.97;15.50;;;19.20;99.90;;;;;;4954136;28;20774;-59
2023/06/09 01:05:36;;;;;;;17.13;15.63;;;18.90;99.90;;;;;;4953991;28;20413;-58
2023/06/09 01:08:20;;;;;;;17.30;15.90;;;18.80;99.90;;;;;;4954175;29;20428;-58
2023/06/09 01:10:51;;;;;;;17.67;16.17;;;18.80;99.90;;;;;;4953919;28;20445;-58
2023/06/09 01:13:28;;;;;;;18.10;16.70;;;18.80;99.90;;;;;;4954204;29;20420;-58
2023/06/09 01:15:59;;;;;;;17.93;16.33;;;18.70;99.90;;;;;;4954728;28;20496;-58
2023/06/09 01:18:30;;;;;;;16.43;15.07;;;18.60;99.90;;;;;;4947432;28;20417;-59
2023/06/09 01:21:22;;;;;;;17.37;15.80;;;18.60;99.90;;;;;;4936330;28;20398;-58
2023/06/09 01:23:58;;;;;;;16.70;15.30;;;18.70;99.90;;;;;;4937686;29;20495;-58
2023/06/09 01:26:26;;;;;;;17.37;15.77;;;18.80;99.90;;;;;;4954370;28;20411;-59
2023/06/09 01:28:55;;;;;;;16.07;14.70;;;18.80;99.90;;;;;;4953587;29;20512;-58
2023/06/09 01:31:23;;;;;;;16.37;15.07;;;18.90;99.90;;;;;;4954382;28;20817;-58
2023/06/09 01:33:51;;;;;;;15.20;14.00;;;18.90;99.90;;;;;;4953532;28;20464;-58
2023/06/09 01:36:17;;;;;;;15.57;14.20;;;18.90;99.90;;;;;;4954396;28;20500;-58
2023/06/09 01:38:43;;;;;;;16.20;15.00;;;18.90;99.90;;;;;;4953479;29;20412;-59
2023/06/09 01:41:09;;;;;;;15.97;14.67;;;18.90;99.90;;;;;;4954213;29;20177;-59
2023/06/09 01:43:35;;;;;;;16.10;14.90;;;18.90;99.90;;;;;;4953257;28;20519;-58
2023/06/09 01:46:01;;;;;;;15.87;14.63;;;18.90;99.90;;;;;;4954389;29;20405;-59
2023/06/09 01:48:31;;;;;;;15.20;13.93;;;19.00;99.90;;;;;;4952762;28;20532;-58
2023/06/09 01:51:07;;;;;;;15.20;14.10;;;18.90;99.90;;;;;;4954186;28;20173;-58
2023/06/09 01:53:36;;;;;;;16.43;15.13;;;18.90;99.90;;;;;;4953331;28;20483;-58
2023/06/09 01:56:15;;;;;;;15.43;14.13;;;19.00;99.90;;;;;;4954008;29;20440;-59
2023/06/09 01:58:46;;;;;;;15.27;14.07;;;19.00;99.90;;;;;;4952799;28;20924;-58
2023/06/09 02:01:17;;;;;;;15.37;14.27;;;18.90;99.90;;;;;;4953407;29;20421;-58
2023/06/09 02:03:44;;;;;;;14.80;13.70;;;18.90;99.90;;;;;;4953284;28;20456;-59
2023/06/09 02:06:15;;;;;;;15.00;13.90;;;18.90;99.90;;;;;;4952417;29;20463;-58
2023/06/09 02:08:42;;;;;;;15.90;14.70;;;18.80;99.90;;;;;;4953268;29;20492;-58
2023/06/09 02:11:10;;;;;;;15.83;14.47;;;18.80;99.90;;;;;;4953873;28;20472;-58
2023/06/09 02:13:35;;;;;;;17.20;15.90;;;18.80;99.90;;;;;;4951395;29;20456;-58
2023/06/09 02:16:01;;;;;;;17.67;15.97;;;18.70;99.90;;;;;;4953910;29;20759;-58
2023/06/09 02:18:27;;;;;;;16.90;15.60;;;18.60;99.90;;;;;;4952527;28;20641;-59
2023/06/09 02:20:53;;;;;;;17.37;15.97;;;18.50;99.90;;;;;;4953319;29;20256;-59
2023/06/09 02:23:20;;;;;;;16.97;15.67;;;18.20;99.90;;;;;;4953836;29;20169;-58
2023/06/09 02:25:46;;;;;;;17.47;16.07;;;18.10;99.90;;;;;;4953007;29;20216;-58
2023/06/09 02:28:12;;;;;;;17.00;15.40;;;18.00;99.90;;;;;;4953127;29;20409;-58
2023/06/09 02:30:38;;;;;;;18.00;16.63;;;17.90;99.90;;;;;;4952115;28;20421;-58
2023/06/09 02:33:04;;;;;;;18.00;16.00;;;17.80;99.90;;;;;;4952842;28;20905;-58
2023/06/09 02:35:31;;;;;;;17.53;16.13;;;17.80;99.90;;;;;;4953189;28;20588;-58
2023/06/09 02:37:57;;;;;;;17.30;16.00;;;17.80;99.90;;;;;;4953914;28;20408;-58
2023/06/09 02:40:26;;;;;;;17.90;16.50;;;17.80;99.90;;;;;;4953218;28;20428;-59
2023/06/09 02:42:52;;;;;;;17.80;16.37;;;17.60;99.90;;;;;;4952370;28;20456;-58
2023/06/09 02:45:18;;;;;;;18.00;16.50;;;17.60;99.90;;;;;;4953773;29;20748;-59
2023/06/09 02:47:43;;;;;;;17.20;15.80;;;17.60;99.90;;;;;;4951895;29;20185;-58
2023/06/09 02:50:10;;;;;;;17.90;16.40;;;17.50;99.90;;;;;;4953125;28;20420;-59
2023/06/09 02:52:35;;;;;;;18.20;16.83;;;17.50;99.90;;;;;;4952813;29;20181;-58
2023/06/09 02:55:02;;;;;;;17.13;15.67;;;17.60;99.90;;;;;;4953712;28;21015;-59
2023/06/09 02:57:28;;;;;;;17.30;15.93;;;17.70;99.90;;;;;;4956499;28;20646;-58
2023/06/09 02:59:53;;;;;;;16.40;15.00;;;17.70;99.90;;;;;;4955006;29;20469;-58
2023/06/09 03:02:20;;;;;;;15.87;14.67;;;17.80;99.90;;;;;;4956947;28;20423;-58
2023/06/09 03:04:46;;;;;;;15.93;14.57;;;17.80;99.90;;;;;;4955407;28;20612;-58
2023/06/09 03:07:16;;;;;;;15.43;14.23;;;17.90;99.90;;;;;;4956968;28;20405;-58
2023/06/09 03:09:43;;;;;;;17.00;15.40;;;18.00;99.90;;;;;;4955339;28;20491;-58
2023/06/09 03:12:09;;;;;;;16.23;15.03;;;18.00;99.90;;;;;;4956883;29;20424;-58
2023/06/09 03:14:35;;;;;;;15.80;14.63;;;18.00;99.90;;;;;;4955871;28;20460;-58
2023/06/09 03:17:04;;;;;;;16.10;14.90;;;18.00;99.90;;;;;;4955835;28;20488;-58
2023/06/09 03:19:30;;;;;;;17.43;16.03;;;18.00;99.90;;;;;;4956363;28;20416;-58
2023/06/09 03:21:57;;;;;;;16.80;15.23;;;18.10;99.90;;;;;;4956116;28;20423;-58
2023/06/09 03:24:24;;;;;;;16.10;14.90;;;18.10;99.90;;;;;;4956580;28;20820;-58
2023/06/09 03:26:52;;;;;;;16.07;14.77;;;18.00;99.90;;;;;;4955092;28;20423;-58
2023/06/09 03:29:19;;;;;;;17.37;15.93;;;18.00;99.90;;;;;;4956806;28;20420;-59
2023/06/09 03:31:45;;;;;;;17.80;16.20;;;18.00;99.90;;;;;;4955786;28;20409;-58
2023/06/09 03:34:10;;;;;;;16.43;15.23;;;18.00;99.90;;;;;;4956349;28;20514;-59
2023/06/09 03:36:36;;;;;;;17.53;16.07;;;18.00;99.90;;;;;;4955359;28;20531;-58
2023/06/09 03:39:03;;;;;;;16.30;15.10;;;18.10;99.90;;;;;;4956440;28;20185;-58
2023/06/09 03:41:29;;;;;;;17.17;15.90;;;18.10;99.90;;;;;;4956252;28;20592;-58
2023/06/09 03:43:54;;;;;;;19.20;17.60;;;18.10;99.90;;;;;;4955517;29;20551;-58
2023/06/09 03:46:21;;;;;;;19.67;18.07;;;18.00;99.90;;;;;;4956306;28;20173;-58
2023/06/09 03:48:47;;;;;;;20.40;18.50;;;17.90;99.90;;;;;;4954946;28;20580;-58
2023/06/09 03:51:13;;;;;;;18.17;16.67;;;17.90;99.90;;;;;;4941586;29;20541;-58
2023/06/09 03:53:38;;;;;;;21.03;19.23;;;17.90;99.90;;;;;;4943170;29;20544;-58
2023/06/09 03:56:06;;;;;;;17.27;15.97;;;18.00;99.90;;;;;;4955988;28;20196;-58
2023/06/09 03:58:33;;;;;;;19.00;17.60;;;18.00;99.90;;;;;;4955178;28;20185;-58
2023/06/09 04:00:59;;;;;;;19.13;17.60;;;18.10;99.90;;;;;;4955196;28;20900;-59
2023/06/09 04:03:24;;;;;;;18.27;16.87;;;18.20;99.90;;;;;;4955829;28;20420;-59
2023/06/09 04:05:50;;;;;;;18.00;16.60;;;18.20;99.90;;;;;;4955269;29;20413;-58
2023/06/09 04:08:16;;;;;;;21.10;19.30;;;18.20;99.90;;;;;;4955558;28;20260;-59
2023/06/09 04:10:42;;;;;;;20.23;18.63;;;18.20;99.90;;;;;;4954981;28;20479;-58
2023/06/09 04:13:09;;;;;;;20.80;19.00;;;18.10;99.90;;;;;;4955419;28;20830;-58
2023/06/09 04:15:35;;;;;;;18.63;17.13;;;18.10;99.90;;;;;;4955100;29;20908;-58
2023/06/09 04:18:01;;;;;;;20.30;18.57;;;18.00;99.90;;;;;;4954408;28;20503;-58
2023/06/09 04:20:27;;;;;;;19.97;18.43;;;18.00;99.90;;;;;;4955603;28;20419;-58
2023/06/09 04:22:53;;;;;;;21.00;19.20;;;18.00;99.90;;;;;;4953399;28;20479;-58
2023/06/09 04:25:25;;;;;;;22.80;20.90;;;18.00;99.90;;;;;;4955452;28;20912;-58
2023/06/09 04:27:55;;;;;;;19.87;18.10;;;18.00;99.90;;;;;;4954787;28;20405;-58
2023/06/09 04:30:25;;;;;;;24.50;22.27;;;18.10;99.90;;;;;;4955374;28;20405;-58
2023/06/09 04:32:52;;;;;;;19.33;17.70;;;18.10;99.90;;;;;;4954802;28;20421;-58
2023/06/09 04:35:20;;;;;;;19.50;17.90;;;18.00;99.90;;;;;;4955195;28;20457;-59
2023/06/09 04:37:46;;;;;;;18.70;17.10;;;18.10;99.90;;;;;;4954115;28;20822;-58
2023/06/09 04:40:21;;;;;;;18.47;16.97;;;18.10;99.90;;;;;;4955180;28;20830;-58
2023/06/09 04:42:52;;;;;;;18.07;16.57;;;18.10;99.90;;;;;;4953948;28;20520;-58
2023/06/09 04:45:27;;;;;;;19.37;17.77;;;18.10;99.90;;;;;;4953691;28;20436;-59
2023/06/09 04:47:59;;;;;;;19.40;17.90;;;18.10;99.90;;;;;;4953745;28;20431;-59
2023/06/09 04:50:30;;;;;;;20.30;18.50;;;18.10;99.90;;;;;;4955291;28;20452;-59
2023/06/09 04:53:03;;;;;;;19.07;17.47;;;18.20;99.90;;;;;;4953518;29;20947;-58
2023/06/09 04:55:29;;;;;;;19.83;18.00;;;18.10;99.90;;;;;;4955190;29;20479;-58
2023/06/09 04:57:56;;;;;;;21.40;19.40;;;17.90;99.90;;;;;;4954707;28;20401;-58
2023/06/09 05:00:30;;;;;;;20.77;18.97;;;17.90;99.90;;;;;;4954167;28;20423;-58
2023/06/09 05:02:59;;;;;;;20.90;19.10;;;18.00;99.90;;;;;;4945452;29;20432;-58
2023/06/09 05:05:25;;;;;;;19.77;18.27;;;17.90;99.90;;;;;;4935869;29;20418;-58
2023/06/09 05:07:51;;;;;;;20.67;18.67;;;17.90;99.90;;;;;;4946931;29;20423;-58
2023/06/09 05:10:17;;;;;;;19.00;17.53;;;18.00;99.90;;;;;;4954712;29;20404;-59
2023/06/09 05:12:43;;;;;;;18.97;17.57;;;18.10;99.90;;;;;;4952761;29;20181;-59
2023/06/09 05:15:10;;;;;;;20.33;18.73;;;18.30;99.90;;;;;;4954261;28;20467;-59
2023/06/09 05:17:41;;;;;;;20.00;18.50;;;18.40;99.90;;;;;;4954362;28;20409;-59
2023/06/09 05:20:08;;;;;;;19.57;18.07;;;18.50;99.90;;;;;;4954133;28;20409;-58
2023/06/09 05:22:35;;;;;;;20.10;18.40;;;18.60;99.90;;;;;;4954479;29;20423;-59
2023/06/09 05:25:08;;;;;;;19.57;18.00;;;18.70;99.90;;;;;;4953304;29;20416;-59
2023/06/09 05:27:33;;;;;;;20.80;18.83;;;18.80;99.90;;;;;;4954397;28;20409;-59
2023/06/09 05:29:59;;;;;;;18.43;16.93;;;18.90;99.90;;;;;;4952668;29;20424;-59
2023/06/09 05:32:25;;;;;;;20.50;18.80;;;18.90;99.90;;;;;;4954229;29;20211;-58
2023/06/09 05:34:50;;;;;;;19.87;18.07;;;19.00;99.90;;;;;;4953529;29;20247;-59
2023/06/09 05:37:16;;;;;;;19.00;17.20;;;19.00;99.90;;;;;;4953113;29;20184;-59
2023/06/09 05:39:42;;;;;;;19.70;18.00;;;19.10;99.90;;;;;;4953816;28;20180;-58
2023/06/09 05:42:08;;;;;;;19.80;18.07;;;19.00;99.90;;;;;;4953636;28;20304;-58
2023/06/09 05:44:34;;;;;;;19.50;17.90;;;19.00;99.90;;;;;;4954317;29;20227;-58
2023/06/09 05:47:00;;;;;;;19.00;17.43;;;19.00;99.90;;;;;;4953274;29;21047;-58
2023/06/09 05:49:26;;;;;;;20.60;18.90;;;19.00;99.90;;;;;;4953975;29;20424;-59
2023/06/09 05:51:51;;;;;;;19.17;17.63;;;19.10;99.90;;;;;;4953297;28;20184;-59
2023/06/09 05:54:18;;;;;;;19.37;17.70;;;19.20;99.90;;;;;;4954252;28;20715;-59
2023/06/09 05:56:48;;;;;;;20.37;18.50;;;19.30;99.90;;;;;;4953199;28;20224;-58
2023/06/09 05:59:15;;;;;;;18.63;17.27;;;19.40;99.90;;;;;;4954046;28;20769;-59
2023/06/09 06:01:41;;;;;;;18.97;17.37;;;19.50;99.90;;;;;;4953497;28;20401;-59
2023/06/09 06:04:08;;;;;;;19.73;18.10;;;19.50;99.90;;;;;;4953789;28;20901;-59
2023/06/09 06:06:37;;;;;;;20.40;18.70;;;19.40;99.90;;;;;;4952683;29;20554;-59
2023/06/09 06:09:03;;;;;;;20.70;19.00;;;19.40;99.90;;;;;;4953442;29;20413;-58
2023/06/09 06:11:29;;;;;;;17.90;16.60;;;19.40;99.90;;;;;;4952801;28;20948;-58
2023/06/09 06:13:55;;;;;;;18.70;17.20;;;19.40;99.90;;;;;;4952408;28;20511;-58
2023/06/09 06:16:20;;;;;;;18.87;17.27;;;19.40;99.90;;;;;;4943443;28;20458;-58
2023/06/09 06:18:46;;;;;;;19.43;17.83;;;19.40;99.90;;;;;;4949863;29;20267;-58
2023/06/09 06:21:12;;;;;;;17.17;15.87;;;19.50;99.90;;;;;;4950757;29;20188;-58
2023/06/09 06:23:38;;;;;;;19.13;17.50;;;19.70;99.90;;;;;;4942707;28;20177;-58
2023/06/09 06:26:04;;;;;;;18.37;16.83;;;19.70;99.90;;;;;;4953003;28;20169;-58
2023/06/09 06:28:29;;;;;;;18.23;16.70;;;19.80;99.90;;;;;;4953165;29;20607;-58
2023/06/09 06:30:55;;;;;;;17.53;16.23;;;19.90;99.90;;;;;;4937362;28;20181;-58
2023/06/09 06:33:21;;;;;;;18.13;16.63;;;20.10;99.90;;;;;;4944492;29;20181;-58
2023/06/09 06:35:47;;;;;;;16.10;14.90;;;20.20;99.90;;;;;;4957056;28;20275;-58
2023/06/09 06:38:12;;;;;;;15.90;14.70;;;20.30;99.90;;;;;;4954425;28;21004;-58
2023/06/09 06:40:42;;;;;;;15.73;14.43;;;20.40;99.90;;;;;;4956304;29;20192;-63
2023/06/09 06:43:08;;;;;;;16.30;15.00;;;20.50;99.90;;;;;;4944518;29;20475;-59
2023/06/09 06:45:34;;;;;;;14.80;13.53;;;20.70;99.90;;;;;;4955918;28;20937;-59
2023/06/09 06:48:00;;;;;;;15.80;14.60;;;21.00;99.90;;;;;;4947316;29;20638;-59
2023/06/09 06:50:27;;;;;;;16.37;15.07;;;21.20;99.90;;;;;;4949981;29;20538;-59
2023/06/09 06:52:53;;;;;;;16.30;15.00;;;21.30;99.90;;;;;;4946478;28;20737;-59
2023/06/09 06:55:18;;;;;;;24.10;21.80;;;21.40;99.90;;;;;;4956826;29;20536;-60
2023/06/09 06:57:45;;;;;;;16.37;15.07;;;21.50;99.90;;;;;;4953012;29;20181;-59
2023/06/09 07:00:14;;;;;;;33.13;29.87;;;21.60;99.90;;;;;;4954063;28;20188;-59
2023/06/09 07:02:49;;;;;;;16.60;15.30;;;21.60;99.90;;;;;;4946321;29;20428;-59
2023/06/09 07:05:16;;;;;;;33.63;30.20;;;21.70;99.90;;;;;;4953603;28;20432;-59
2023/06/09 07:07:43;;;;;;;30.20;27.23;;;21.90;99.90;;;;;;4956928;28;20409;-61
2023/06/09 07:10:10;;;;;;;42.73;37.80;;;22.00;99.90;;;;;;4957020;28;20413;-60
2023/06/09 07:12:36;;;;;;;55.57;46.20;;;22.10;99.90;;;;;;4956817;28;20447;-60
2023/06/09 07:15:03;;;;;;;113.67;88.10;;;22.20;99.90;;;;;;4949370;29;20528;-59
2023/06/09 07:17:29;;;;;;;102.83;76.07;;;22.30;99.90;;;;;;4951992;29;20429;-60
2023/06/09 07:19:55;;;;;;;19.87;18.27;;;22.50;99.90;;;;;;4956305;28;20429;-60
2023/06/09 07:22:21;;;;;;;15.63;14.43;;;22.70;99.90;;;;;;4956937;29;20315;-59
2023/06/09 07:24:47;;;;;;;50.90;44.80;;;22.70;99.90;;;;;;4956440;28;20457;-59
2023/06/09 07:27:13;;;;;;;37.17;33.27;;;22.70;99.90;;;;;;4956967;28;20263;-60
2023/06/09 07:29:41;;;;;;;17.43;15.93;;;22.90;99.90;;;;;;4956962;28;20440;-59
2023/06/09 07:32:08;;;;;;;14.87;13.77;;;23.10;99.90;;;;;;4956123;28;20173;-59
2023/06/09 07:34:35;;;;;;;15.27;14.17;;;23.40;99.90;;;;;;4956442;28;20547;-59
2023/06/09 07:37:04;;;;;;;14.80;13.80;;;23.70;99.90;;;;;;4956195;28;20416;-59
2023/06/09 07:39:30;;;;;;;15.60;14.30;;;23.90;99.90;;;;;;4955583;29;20853;-64
2023/06/09 07:41:56;;;;;;;16.73;15.33;;;24.20;99.90;;;;;;4955377;28;20460;-61
2023/06/09 07:44:22;;;;;;;17.30;15.80;;;24.20;99.90;;;;;;4955800;28;20472;-61
2023/06/09 07:46:49;;;;;;;15.83;14.50;;;24.40;99.90;;;;;;4955498;29;20711;-61
2023/06/09 07:49:16;;;;;;;14.10;13.20;;;24.50;99.40;;;;;;4955683;29;20177;-61
2023/06/09 07:51:43;;;;;;;14.00;13.10;;;24.80;99.10;;;;;;4956520;28;20408;-61
2023/06/09 07:54:09;;;;;;;14.90;13.70;;;24.90;98.70;;;;;;4952510;28;20457;-61
2023/06/09 07:56:36;;;;;;;14.50;13.50;;;25.10;97.60;;;;;;4939845;29;20516;-61
2023/06/09 07:59:02;;;;;;;15.90;14.77;;;25.30;97.60;;;;;;4936636;29;20436;-62
2023/06/09 08:01:29;;;;;;;18.50;16.70;;;25.60;96.60;;;;;;4945807;29;20417;-61
2023/06/09 08:03:56;;;;;;;16.70;15.40;;;25.70;96.20;;;;;;4942382;28;20937;-61
2023/06/09 08:06:21;;;;;;;15.50;14.50;;;25.90;95.30;;;;;;4946063;29;20544;-61
2023/06/09 08:08:47;;;;;;;128.23;113.27;;;26.00;94.90;;;;;;4955625;29;20500;-66
2023/06/09 08:11:13;;;;;;;82.00;71.93;;;26.20;94.30;;;;;;4956288;28;20177;-61
2023/06/09 08:13:42;;;;;;;42.60;38.40;;;26.40;94.60;;;;;;4954778;29;20625;-61
2023/06/09 08:16:07;;;;;;;17.00;15.50;;;26.50;93.90;;;;;;4955498;28;20495;-61
2023/06/09 08:18:33;;;;;;;14.37;13.40;;;26.70;93.70;;;;;;4955939;28;20272;-61
2023/06/09 08:20:59;;;;;;;14.57;13.57;;;26.80;93.00;;;;;;4955186;29;20180;-61
2023/06/09 08:23:25;;;;;;;14.43;13.37;;;27.00;93.20;;;;;;4955619;29;20185;-61
2023/06/09 08:25:51;;;;;;;12.90;12.00;;;27.20;92.90;;;;;;4955305;28;20177;-62
2023/06/09 08:28:16;;;;;;;12.90;11.90;;;27.40;91.80;;;;;;4955330;28;20893;-67
2023/06/09 08:30:42;;;;;;;14.53;13.43;;;27.50;90.40;;;;;;4954019;29;20244;-61
2023/06/09 08:33:08;;;;;;;13.67;12.77;;;27.60;90.50;;;;;;4955112;29;20173;-66
2023/06/09 08:35:34;;;;;;;12.73;11.90;;;27.70;90.50;;;;;;4955186;29;20309;-66
2023/06/09 08:38:00;;;;;;;13.17;12.20;;;27.80;88.50;;;;;;4954823;28;20268;-66
2023/06/09 08:40:26;;;;;;;14.33;13.20;;;27.90;88.20;;;;;;4955192;28;20177;-66
2023/06/09 08:42:57;;;;;;;11.70;10.90;;;28.10;86.90;;;;;;4953012;29;20516;-66
2023/06/09 08:45:25;;;;;;;13.43;12.20;;;28.20;86.10;;;;;;4953136;29;20653;-66
2023/06/09 08:47:55;;;;;;;12.47;11.37;;;28.30;88.80;;;;;;4954942;29;20413;-66
2023/06/09 08:50:22;;;;;;;10.83;10.13;;;28.40;79.40;;;;;;4954148;29;20408;-66
2023/06/09 08:52:48;;;;;;;10.93;10.23;;;28.10;79.30;;;;;;4954910;28;20427;-66
2023/06/09 08:55:14;;;;;;;11.30;10.57;;;28.20;84.00;;;;;;4954386;28;20496;-66
2023/06/09 08:57:43;;;;;;;12.07;11.27;;;28.30;82.30;;;;;;4955319;29;20413;-66
2023/06/09 09:00:11;;;;;;;10.90;10.20;;;28.50;83.40;;;;;;4954739;29;20456;-66
2023/06/09 09:02:37;;;;;;;9.97;9.27;;;28.60;81.10;;;;;;4955406;28;20401;-66
2023/06/09 09:05:03;;;;;;;11.40;10.60;;;28.70;80.30;;;;;;4954365;29;20992;-66
2023/06/09 09:07:29;;;;;;;9.27;8.67;;;28.90;80.20;;;;;;4953881;29;20543;-66
2023/06/09 09:09:55;;;;;;;9.20;8.60;;;28.90;72.50;;;;;;4954546;29;20409;-66
2023/06/09 09:12:21;;;;;;;9.03;8.50;;;29.00;72.90;;;;;;4953947;28;20520;-66
2023/06/09 09:14:47;;;;;;;9.07;8.47;;;29.00;67.30;;;;;;4954931;29;20213;-66
2023/06/09 09:17:14;;;;;;;9.17;8.67;;;29.00;66.20;;;;;;4954338;29;20537;-66
2023/06/09 09:19:49;;;;;;;9.93;9.03;;;28.90;66.50;;;;;;4955006;29;20825;-66
2023/06/09 09:22:15;;;;;;;8.40;7.90;;;28.90;67.40;;;;;;4954654;28;20396;-66
2023/06/09 09:24:44;;;;;;;8.60;8.10;;;28.90;66.80;;;;;;4954804;29;20511;-66
2023/06/09 09:27:18;;;;;;;9.30;8.70;;;28.40;63.90;;;;;;4954307;28;20183;-66
2023/06/09 09:29:44;;;;;;;9.90;9.30;;;28.30;65.90;;;;;;4954721;29;20412;-66
2023/06/09 09:32:10;;;;;;;9.73;9.03;;;28.50;68.40;;;;;;4954458;29;20491;-66
2023/06/09 09:34:40;;;;;;;9.20;8.60;;;28.90;70.20;;;;;;4954767;28;20457;-66
2023/06/09 09:37:10;;;;;;;8.73;8.13;;;29.10;71.00;;;;;;4954119;28;20417;-66
2023/06/09 09:39:53;;;;;;;10.13;9.33;;;29.30;64.40;;;;;;4954096;29;20405;-66
2023/06/09 09:42:20;;;;;;;9.70;9.10;;;29.40;66.40;;;;;;4954469;29;20499;-66
2023/06/09 09:44:50;;;;;;;8.30;7.80;;;29.30;65.20;;;;;;4954849;28;20465;-66
2023/06/09 09:47:18;;;;;;;9.07;8.47;;;29.00;60.80;;;;;;4954033;28;20472;-66
2023/06/09 09:50:00;;;;;;;8.30;7.80;;;29.00;64.20;;;;;;4954530;28;20413;-66
2023/06/09 09:52:33;;;;;;;8.47;7.93;;;29.40;65.70;;;;;;4954640;28;20401;-66
2023/06/09 09:55:00;;;;;;;9.27;8.67;;;29.00;60.50;;;;;;4952786;29;20460;-66
2023/06/09 09:57:29;;;;;;;8.60;7.90;;;29.20;62.30;;;;;;4954448;28;20413;-66
2023/06/09 09:59:56;;;;;;;8.77;8.17;;;29.50;66.70;;;;;;4953864;28;20416;-66
2023/06/09 10:02:24;;;;;;;8.63;8.03;;;29.70;62.00;;;;;;4954452;28;20409;-66
2023/06/09 10:04:50;;;;;;;9.20;8.60;;;29.80;60.00;;;;;;4955666;28;20888;-66
2023/06/09 10:07:21;;;;;;;9.37;8.57;;;30.00;61.60;;;;;;4957485;28;20959;-66
2023/06/09 10:09:51;;;;;;;8.33;7.83;;;30.10;61.40;;;;;;4957469;28;20429;-66
2023/06/09 10:12:18;;;;;;;9.20;8.60;;;29.70;57.30;;;;;;4957378;29;20782;-66
2023/06/09 10:14:48;;;;;;;9.43;8.83;;;29.80;58.80;;;;;;4957296;29;20472;-66
2023/06/09 10:17:20;;;;;;;8.63;8.13;;;29.80;57.40;;;;;;4957993;29;20898;-66
2023/06/09 10:19:49;;;;;;;8.80;8.30;;;29.90;59.20;;;;;;4958048;28;20798;-66
2023/06/09 10:22:16;;;;;;;8.87;8.37;;;29.60;56.30;;;;;;4957539;28;20405;-66
2023/06/09 10:24:43;;;;;;;8.60;8.10;;;29.50;58.30;;;;;;4958212;29;20409;-66
2023/06/09 10:27:09;;;;;;;8.53;8.03;;;29.70;58.10;;;;;;4957404;29;20396;-66
2023/06/09 10:29:37;;;;;;;40.60;36.97;;;29.60;57.00;;;;;;4958277;28;20417;-67
2023/06/09 10:32:04;;;;;;;354.83;316.97;;;29.70;60.00;;;;;;4957316;29;20399;-66
2023/06/09 10:34:34;;;;;;;16.70;15.13;;;29.90;59.70;;;;;;4957809;28;20219;-66
2023/06/09 10:37:00;;;;;;;8.68;8.18;;;29.90;56.00;;;;;;4956920;28;20443;-66
2023/06/09 10:39:44;;;;;;;8.97;8.27;;;29.70;56.90;;;;;;4957963;28;20228;-66
2023/06/09 10:42:21;;;;;;;8.40;7.80;;;29.60;57.60;;;;;;4938087;29;20533;-66
2023/06/09 10:45:05;;;;;;;8.47;7.77;;;29.40;55.50;;;;;;4939119;29;20469;-66
2023/06/09 10:47:49;;;;;;;8.10;7.60;;;29.40;57.50;;;;;;4949156;29;20480;-66
2023/06/09 10:50:35;;;;;;;8.00;7.40;;;29.20;57.80;;;;;;4938602;29;20816;-66
2023/06/09 10:53:01;;;;;;;8.83;8.17;;;29.10;57.60;;;;;;4946482;29;20422;-66
2023/06/09 10:55:28;;;;;;;8.97;8.30;;;29.10;57.90;;;;;;4945953;28;20844;-66
2023/06/09 10:57:57;;;;;;;10.03;9.33;;;29.30;57.50;;;;;;4946763;29;20400;-66
2023/06/09 11:01:05;;;;;;;11.93;10.93;;;29.40;62.40;;;;;;4950907;29;20408;-66
2023/06/09 11:03:31;;;;;;;11.00;10.30;;;29.50;67.30;;;;;;4948256;29;20785;-66
2023/06/09 11:06:00;;;;;;;10.73;10.13;;;29.50;65.80;;;;;;4945466;29;20413;-66
2023/06/09 11:08:26;;;;;;;10.70;10.00;;;29.50;66.60;;;;;;4945714;29;20201;-66
2023/06/09 11:10:52;;;;;;;10.97;10.30;;;29.60;66.10;;;;;;4952926;28;20469;-66
2023/06/09 11:13:39;;;;;;;11.40;10.60;;;29.50;65.80;;;;;;4937159;29;20614;-66
2023/06/09 11:16:07;;;;;;;10.13;9.53;;;29.60;65.70;;;;;;4936585;29;20217;-66
2023/06/09 11:18:32;;;;;;;10.40;9.50;;;29.70;66.00;;;;;;4937991;29;20457;-66
2023/06/09 11:21:09;;;;;;;10.60;9.83;;;29.90;67.70;;;;;;4937500;29;20421;-67
2023/06/09 11:24:01;;;;;;;80.20;72.63;;;30.00;62.20;;;;;;4938162;29;20220;-67
2023/06/09 11:26:28;;;;;;;23.17;21.27;;;30.00;61.90;;;;;;4937749;29;20390;-67
2023/06/09 11:28:54;;;;;;;11.07;10.37;;;29.90;61.20;;;;;;4937845;29;20444;-67
2023/06/09 11:31:20;;;;;;;11.20;10.37;;;29.90;61.00;;;;;;4937389;29;20906;-67
2023/06/09 11:33:51;;;;;;;11.80;11.00;;;29.90;66.10;;;;;;4937508;29;20174;-66
2023/06/09 11:36:18;;;;;;;12.00;11.20;;;30.10;66.00;;;;;;4936994;29;20763;-67
2023/06/09 11:38:48;;;;;;;11.87;10.97;;;30.20;63.50;;;;;;4937673;29;20402;-66
2023/06/09 11:41:17;;;;;;;14.70;13.50;;;30.10;64.90;;;;;;4951706;29;20425;-66
2023/06/09 11:43:50;;;;;;;12.77;11.87;;;29.90;64.40;;;;;;4956536;29;20464;-66
2023/06/09 11:46:17;;;;;;;12.33;11.60;;;29.80;65.30;;;;;;4956097;28;20444;-67
2023/06/09 11:49:07;;;;;;;10.93;10.23;;;29.60;65.60;;;;;;4955580;29;20933;-66
2023/06/09 11:51:55;;;;;;;12.53;11.50;;;29.40;67.30;;;;;;4956714;28;20772;-66
2023/06/09 11:54:21;;;;;;;11.97;10.97;;;29.20;65.00;;;;;;4954680;29;20479;-66
2023/06/09 11:56:47;;;;;;;11.90;11.07;;;28.90;66.20;;;;;;4956338;29;20900;-66
2023/06/09 11:59:18;;;;;;;11.27;10.57;;;28.70;66.80;;;;;;4955853;28;20180;-66
2023/06/09 12:01:44;;;;;;;11.00;10.30;;;28.50;68.00;;;;;;4956484;28;20398;-66
2023/06/09 12:04:10;;;;;;;11.13;10.33;;;28.40;68.10;;;;;;4955666;29;20452;-67
2023/06/09 12:06:36;;;;;;;11.60;10.87;;;28.30;68.60;;;;;;4956309;28;20499;-66
2023/06/09 12:09:20;;;;;;;11.47;10.77;;;28.30;70.60;;;;;;4955397;28;20173;-66
2023/06/09 12:11:52;;;;;;;11.33;10.53;;;28.50;71.50;;;;;;4955919;28;20264;-67
2023/06/09 12:14:20;;;;;;;10.97;10.27;;;28.50;68.10;;;;;;4955494;29;20467;-67
2023/06/09 12:16:46;;;;;;;10.83;10.00;;;28.50;68.60;;;;;;4956022;28;20412;-66
2023/06/09 12:19:11;;;;;;;11.20;10.33;;;28.60;70.80;;;;;;4954971;29;20912;-66
2023/06/09 12:21:37;;;;;;;11.40;10.70;;;28.80;68.50;;;;;;4956125;28;20565;-67
2023/06/09 12:24:04;;;;;;;11.17;10.47;;;28.80;68.00;;;;;;4955352;28;20656;-67
2023/06/09 12:26:49;;;;;;;11.50;10.63;;;28.70;67.70;;;;;;4955993;28;20177;-67
2023/06/09 12:29:15;;;;;;;12.40;11.20;;;28.60;67.80;;;;;;4955194;28;20944;-66
2023/06/09 12:31:49;;;;;;;11.57;10.73;;;28.80;69.40;;;;;;4955800;28;20496;-66
2023/06/09 12:34:41;;;;;;;12.00;11.10;;;28.90;68.40;;;;;;4955309;28;20857;-67
2023/06/09 12:37:07;;;;;;;10.40;9.80;;;28.90;66.50;;;;;;4953430;28;20917;-67